Seretse Khama, Botswana

6:38 AM CAT on July 08, 2015 (GMT +0200)
Sir Seretse Khama International | | Change Station
CLOSE
Current Station
Airport
Location: Seretse Khama,
Elevation: 3297 ft
Nearby Weather Stations

Elev 3297 ft 24.56 °S, 25.92 °E | Updated 38 minutes ago

Clear
Clear
43 °F
Feels Like 41 °F
N
4
Wind Variable Wind from SSW

Today
High -- | Low -- °F
--% Chance of Precip.
Yesterday
High -- | Low -- °F
Precip. -- in
7:00 AM 5:41 PM
Waning Gibbous, 58% visible
Pressure 30.39 in
Visibility -9999.0 miles
Clouds
Windchill 41 °F
Dew Point 37 °F
Humidity 81%
Rainfall 0.00 in
Snow Depth Not available.
UV Not available.
Pollen Not available.
Air Quality Not available.
Flu Activity Not available.
METAR FBSK 080400Z 20003KT CAVOK 06/03 Q1029 NOSIG

More Conditions Fewer Conditions

Pressure 30.39 in
Visibility -9999.0 miles
Clouds
Windchill 41 °F
Dew Point 37 °F
Humidity 81%
Rainfall 0.00 in
Snow Depth Not available.
UV Not available.
Pollen Not available.
Air Quality Not available.
Flu Activity Not available.
METAR FBSK 080400Z 20003KT CAVOK 06/03 Q1029 NOSIG

More Conditions Fewer Conditions

10-Day Weather Forecast

×

Almanac

Astronomy

Jul. 08, 2015 Rise Set
Actual Time
Civil Twilight
Nautical Twilight
Astronomical Twilight
Moon
Length of Visible Light
Length of Day
Tomorrow will be .
, % of the Moon is Illuminated

Today's Extremes

Country Highs Country Lows

Community

WunderPhotos

Upload Photos

1,836,055 photos uploaded!

WunderBlogs® & News

Nearby

Air Quality

  Air Quality AQ Index Pollutant
Not available.

Snow Depth

Station Depth Elevation

Earthquake Activity

City Distance Mag. Time & Date
Minimum magnitude displayed is 2.5.

Coastal Water Temperatures

Place Temperature

Stations

Nearby Weather Stations

Station Location Temp. Windchill Dew Point Humidity Wind Precip. Elev Updated Type